Time;durP1;ratioP1;P1;durP2;ratioP2;P2;SDS_P1;SDS_P2;PMS_P1;PMS_P2;Temp;Humidity;BMP_temperature;BMP_pressure;BME280_temperature;BME280_humidity;BME280_pressure;Samples;Min_cycle;Max_cycle;Signal;HPM_P1;HPM_P2
2023/05/25 00:01:35;;;;;;;;;;;;;;;;;;5003716;28;19929;-71
2023/05/25 00:04:02;;;;;;;;;;;;;;;;;;5002528;28;19933;-72
2023/05/25 00:06:29;;;;;;;;;;;;;;;;;;5008088;28;19933;-71
2023/05/25 00:08:56;;;;;;;;;;;;;;;;;;5006465;28;19967;-72
2023/05/25 00:11:23;;;;;;;;;;;;;;;;;;5001629;28;20354;-72
2023/05/25 00:13:51;;;;;;;;;;;;;;;;;;5001619;28;19926;-72
2023/05/25 00:16:18;;;;;;;;;;;;;;;;;;5008230;28;19926;-71
2023/05/25 00:18:47;;;;;;;;;;;;;;;;;;5001478;28;19929;-72
2023/05/25 00:21:14;;;;;;;;;;;;;;;;;;5000041;28;19926;-71
2023/05/25 00:23:41;;;;;;;;;;;;;;;;;;5004468;28;19926;-72
2023/05/25 00:26:08;;;;;;;;;;;;;;;;;;5005580;28;19955;-71
2023/05/25 00:28:37;;;;;;;;;;;;;;;;;;5001314;28;20393;-72
2023/05/25 00:31:04;;;;;;;;;;;;;;;;;;4996324;28;19933;-71
2023/05/25 00:33:32;;;;;;;;;;;;;;;;;;5004223;28;19933;-71
2023/05/25 00:35:59;;;;;;;;;;;;;;;;;;4996706;28;19925;-71
2023/05/25 00:38:26;;;;;;;;;;;;;;;;;;5001211;28;19926;-71
2023/05/25 00:40:53;;;;;;;;;;;;;;;;;;4996346;28;20408;-71
2023/05/25 00:43:20;;;;;;;;;;;;;;;;;;5004935;28;19926;-72
2023/05/25 00:45:47;;;;;;;;;;;;;;;;;;5005825;28;19981;-72
2023/05/25 00:48:17;;;;;;;;;;;;;;;;;;5001939;28;19929;-72
2023/05/25 00:50:44;;;;;;;;;;;;;;;;;;5006090;28;19976;-72
2023/05/25 00:53:11;;;;;;;;;;;;;;;;;;4994197;28;20405;-71
2023/05/25 00:55:38;;;;;;;;;;;;;;;;;;5000451;28;19933;-73
2023/05/25 00:58:06;;;;;;;;;;;;;;;;;;5000352;28;19937;-72
2023/05/25 01:00:34;;;;;;;;;;;;;;;;;;5005674;28;19930;-71
2023/05/25 01:03:01;;;;;;;;;;;;;;;;;;4998427;28;19927;-72
2023/05/25 01:05:29;;;;;;;;;;;;;;;;;;5005292;28;20367;-74
2023/05/25 01:07:56;;;;;;;;;;;;;;;;;;5000940;28;20346;-72
2023/05/25 01:10:23;;;;;;;;;;;;;;;;;;5003514;28;19930;-72
2023/05/25 01:12:50;;;;;;;;;;;;;;;;;;5005456;28;19926;-72
2023/05/25 01:15:17;;;;;;;;;;;;;;;;;;5009291;28;19929;-72
2023/05/25 01:17:44;;;;;;;;;;;;;;;;;;5000015;28;19926;-72
2023/05/25 01:20:12;;;;;;;;;;;;;;;;;;5007361;28;19929;-71
2023/05/25 01:22:40;;;;;;;;;;;;;;;;;;5003310;28;20487;-72
2023/05/25 01:25:08;;;;;;;;;;;;;;;;;;5005138;28;19932;-73
2023/05/25 01:27:37;;;;;;;;;;;;;;;;;;5000230;28;19926;-71
2023/05/25 01:30:04;;;;;;;;;;;;;;;;;;5002429;28;19925;-72
2023/05/25 01:32:32;;;;;;;;;;;;;;;;;;5008437;28;19926;-72
2023/05/25 01:34:59;;;;;;;;;;;;;;;;;;5009040;28;20015;-72
2023/05/25 01:37:26;;;;;;;;;;;;;;;;;;5007994;28;19933;-73
2023/05/25 01:39:53;;;;;;;;;;;;;;;;;;5006190;28;19983;-72
2023/05/25 01:42:20;;;;;;;;;;;;;;;;;;4999678;28;19989;-71
2023/05/25 01:44:47;;;;;;;;;;;;;;;;;;5004145;28;19988;-72
2023/05/25 01:47:14;;;;;;;;;;;;;;;;;;5003985;28;19926;-72
2023/05/25 01:49:42;;;;;;;;;;;;;;;;;;5001426;28;19925;-71
2023/05/25 01:52:09;;;;;;;;;;;;;;;;;;5006167;28;20020;-73
2023/05/25 01:54:36;;;;;;;;;;;;;;;;;;5008374;28;19932;-72
2023/05/25 01:57:03;;;;;;;;;;;;;;;;;;5006362;28;19925;-72
2023/05/25 01:59:30;;;;;;;;;;;;;;;;;;5003938;28;20424;-72
2023/05/25 02:01:57;;;;;;;;;;;;;;;;;;5003937;28;19965;-73
2023/05/25 02:04:24;;;;;;;;;;;;;;;;;;5001864;28;19925;-72
2023/05/25 02:06:52;;;;;;;;;;;;;;;;;;5001842;28;19929;-73
2023/05/25 02:09:20;;;;;;;;;;;;;;;;;;5007262;28;19931;-72
2023/05/25 02:11:47;;;;;;;;;;;;;;;;;;5010945;28;19929;-72
2023/05/25 02:14:14;;;;;;;;;;;;;;;;;;4997658;28;19926;-72
2023/05/25 02:16:46;;;;;;;;;;;;;;;;;;5003947;28;20356;-72
2023/05/25 02:19:14;;;;;;;;;;;;;;;;;;5006006;28;19926;-70
2023/05/25 02:21:41;;;;;;;;;;;;;;;;;;4998052;28;19926;-72
2023/05/25 02:24:09;;;;;;;;;;;;;;;;;;5005715;28;19937;-72
2023/05/25 02:26:36;;;;;;;;;;;;;;;;;;5002388;28;19929;-72
2023/05/25 02:29:03;;;;;;;;;;;;;;;;;;5004378;28;19929;-71
2023/05/25 02:31:30;;;;;;;;;;;;;;;;;;5003553;28;19926;-71
2023/05/25 02:33:57;;;;;;;;;;;;;;;;;;5007104;28;19953;-71
2023/05/25 02:36:27;;;;;;;;;;;;;;;;;;5005181;28;19925;-70
2023/05/25 02:38:54;;;;;;;;;;;;;;;;;;5002894;28;20378;-71
2023/05/25 02:41:23;;;;;;;;;;;;;;;;;;5006317;28;19933;-72
2023/05/25 02:43:50;;;;;;;;;;;;;;;;;;5003123;28;19980;-71
2023/05/25 02:46:17;;;;;;;;;;;;;;;;;;5009897;28;20360;-72
2023/05/25 02:48:45;;;;;;;;;;;;;;;;;;5002766;28;20278;-71
2023/05/25 02:51:12;;;;;;;;;;;;;;;;;;5004681;28;19929;-72
2023/05/25 02:53:39;;;;;;;;;;;;;;;;;;5006739;28;19933;-72
2023/05/25 02:56:09;;;;;;;;;;;;;;;;;;5005336;28;19932;-72
2023/05/25 02:58:36;;;;;;;;;;;;;;;;;;5004136;28;19930;-73
2023/05/25 03:01:16;;;;;;;;;;;;;;;;;;5002179;28;19925;-72
2023/05/25 03:03:44;;;;;;;;;;;;;;;;;;5001993;28;20467;-70
2023/05/25 03:06:12;;;;;;;;;;;;;;;;;;4999753;28;19926;-72
2023/05/25 03:08:40;;;;;;;;;;;;;;;;;;5002827;28;19925;-73
2023/05/25 03:11:07;;;;;;;;;;;;;;;;;;5005853;28;19968;-72
2023/05/25 03:13:35;;;;;;;;;;;;;;;;;;5000929;28;19975;-72
2023/05/25 03:16:02;;;;;;;;;;;;;;;;;;5007043;28;20017;-71
2023/05/25 03:18:29;;;;;;;;;;;;;;;;;;5007892;28;19926;-71
2023/05/25 03:20:56;;;;;;;;;;;;;;;;;;5003205;28;20396;-71
2023/05/25 03:23:24;;;;;;;;;;;;;;;;;;5005477;28;19926;-72
2023/05/25 03:25:54;;;;;;;;;;;;;;;;;;5007179;28;20020;-73
2023/05/25 03:28:22;;;;;;;;;;;;;;;;;;5000667;28;20007;-72
2023/05/25 03:30:49;;;;;;;;;;;;;;;;;;5003364;28;19929;-72
2023/05/25 03:33:16;;;;;;;;;;;;;;;;;;5006552;28;19933;-72
2023/05/25 03:35:46;;;;;;;;;;;;;;;;;;4999294;28;19945;-71
2023/05/25 03:38:14;;;;;;;;;;;;;;;;;;4999620;28;19925;-76
2023/05/25 03:40:41;;;;;;;;;;;;;;;;;;5002746;28;19925;-73
2023/05/25 03:43:08;;;;;;;;;;;;;;;;;;5003315;28;19926;-71
2023/05/25 03:45:35;;;;;;;;;;;;;;;;;;5002370;28;20277;-72
2023/05/25 03:48:02;;;;;;;;;;;;;;;;;;5000902;28;19926;-72
2023/05/25 03:50:31;;;;;;;;;;;;;;;;;;5003171;28;19932;-72
2023/05/25 03:52:58;;;;;;;;;;;;;;;;;;5004696;28;19980;-72
2023/05/25 03:55:25;;;;;;;;;;;;;;;;;;5008102;28;19925;-72
2023/05/25 03:57:52;;;;;;;;;;;;;;;;;;5003131;28;20474;-71
2023/05/25 04:00:21;;;;;;;;;;;;;;;;;;5003122;28;19929;-72
2023/05/25 04:02:49;;;;;;;;;;;;;;;;;;5004278;28;19929;-72
2023/05/25 04:05:16;;;;;;;;;;;;;;;;;;4999657;28;20020;-72
2023/05/25 04:07:44;;;;;;;;;;;;;;;;;;5003969;28;19976;-72
2023/05/25 04:10:11;;;;;;;;;;;;;;;;;;5004777;28;20388;-71
2023/05/25 04:12:39;;;;;;;;;;;;;;;;;;5001957;28;19926;-71
2023/05/25 04:15:08;;;;;;;;;;;;;;;;;;5000937;28;19925;-72
2023/05/25 04:17:41;;;;;;;;;;;;;;;;;;4994470;28;19934;-74
2023/05/25 04:20:09;;;;;;;;;;;;;;;;;;4997715;28;20364;-71
2023/05/25 04:22:37;;;;;;;;;;;;;;;;;;4998160;28;19926;-72
2023/05/25 04:25:04;;;;;;;;;;;;;;;;;;4991272;28;20401;-73
2023/05/25 04:27:31;;;;;;;;;;;;;;;;;;4994029;28;19930;-72
2023/05/25 04:29:59;;;;;;;;;;;;;;;;;;4988655;28;20231;-74
2023/05/25 04:33:01;;;;;;;;;;;;;;;;;;4993671;28;19925;-73
2023/05/25 04:35:53;;;;;;;;;;;;;;;;;;4983083;28;19933;-73
2023/05/25 04:38:20;;;;;;;;;;;;;;;;;;4989264;28;20025;-73
2023/05/25 04:40:47;;;;;;;;;;;;;;;;;;4987348;28;19926;-73
2023/05/25 04:43:17;;;;;;;;;;;;;;;;;;4986621;28;19932;-72
2023/05/25 04:45:44;;;;;;;;;;;;;;;;;;4988003;28;19926;-71
2023/05/25 04:48:12;;;;;;;;;;;;;;;;;;4987070;28;20397;-72
2023/05/25 04:50:40;;;;;;;;;;;;;;;;;;4995320;28;20456;-74
2023/05/25 04:53:08;;;;;;;;;;;;;;;;;;5003796;28;19972;-72
2023/05/25 04:55:35;;;;;;;;;;;;;;;;;;4996026;28;19958;-71
2023/05/25 04:58:04;;;;;;;;;;;;;;;;;;4989255;28;20020;-70
2023/05/25 05:00:33;;;;;;;;;;;;;;;;;;4993838;28;19925;-71
2023/05/25 05:03:00;;;;;;;;;;;;;;;;;;4983966;28;20045;-73
2023/05/25 05:05:27;;;;;;;;;;;;;;;;;;4991560;28;20393;-74
2023/05/25 05:07:56;;;;;;;;;;;;;;;;;;4989688;28;19933;-73
2023/05/25 05:10:23;;;;;;;;;;;;;;;;;;4992048;28;20300;-71
2023/05/25 05:12:55;;;;;;;;;;;;;;;;;;4989133;28;20029;-72
2023/05/25 05:15:22;;;;;;;;;;;;;;;;;;4988358;28;19933;-71
2023/05/25 05:17:50;;;;;;;;;;;;;;;;;;4988660;28;19998;-72
2023/05/25 05:20:17;;;;;;;;;;;;;;;;;;4995184;28;19925;-74
2023/05/25 05:22:44;;;;;;;;;;;;;;;;;;4990170;28;19930;-77
2023/05/25 05:25:11;;;;;;;;;;;;;;;;;;4989654;28;20381;-72
2023/05/25 05:27:38;;;;;;;;;;;;;;;;;;4987709;28;19933;-72
2023/05/25 05:30:13;;;;;;;;;;;;;;;;;;4987364;28;19925;-74
2023/05/25 05:32:40;;;;;;;;;;;;;;;;;;4987817;28;19932;-72
2023/05/25 05:35:09;;;;;;;;;;;;;;;;;;4986397;28;19932;-73
2023/05/25 05:37:43;;;;;;;;;;;;;;;;;;4985061;28;20348;-72
2023/05/25 05:40:11;;;;;;;;;;;;;;;;;;4987019;28;19960;-73
2023/05/25 05:42:39;;;;;;;;;;;;;;;;;;4996413;28;19929;-74
2023/05/25 05:45:06;;;;;;;;;;;;;;;;;;4995195;28;19984;-72
2023/05/25 05:47:34;;;;;;;;;;;;;;;;;;5022097;28;19941;-73
2023/05/25 05:50:01;;;;;;;;;;;;;;;;;;5001635;28;20447;-72
2023/05/25 05:52:30;;;;;;;;;;;;;;;;;;5000371;28;20028;-72
2023/05/25 05:54:57;;;;;;;;;;;;;;;;;;5002741;28;19926;-73
2023/05/25 05:57:24;;;;;;;;;;;;;;;;;;4991561;28;19998;-71
2023/05/25 05:59:51;;;;;;;;;;;;;;;;;;5002070;28;20364;-73
2023/05/25 06:02:18;;;;;;;;;;;;;;;;;;4996993;28;20375;-73
2023/05/25 06:04:46;;;;;;;;;;;;;;;;;;5002193;28;19926;-72
2023/05/25 06:07:13;;;;;;;;;;;;;;;;;;4994422;28;19925;-72
2023/05/25 06:09:41;;;;;;;;;;;;;;;;;;5003352;28;19932;-72
2023/05/25 06:12:08;;;;;;;;;;;;;;;;;;4992938;28;20003;-72
2023/05/25 06:14:35;;;;;;;;;;;;;;;;;;4990806;28;19926;-73
2023/05/25 06:17:04;;;;;;;;;;;;;;;;;;4997399;28;20025;-72
2023/05/25 06:19:31;;;;;;;;;;;;;;;;;;4997138;28;19926;-72
2023/05/25 06:21:58;;;;;;;;;;;;;;;;;;5006480;28;19930;-72
2023/05/25 06:24:25;;;;;;;;;;;;;;;;;;4996962;28;19926;-72
2023/05/25 06:26:52;;;;;;;;;;;;;;;;;;4997976;28;19930;-72
2023/05/25 06:29:20;;;;;;;;;;;;;;;;;;5004683;28;20328;-73
2023/05/25 06:31:47;;;;;;;;;;;;;;;;;;4999874;28;19926;-72
2023/05/25 06:34:14;;;;;;;;;;;;;;;;;;5009129;28;19933;-71
2023/05/25 06:36:41;;;;;;;;;;;;;;;;;;5004452;28;19925;-72
2023/05/25 06:39:09;;;;;;;;;;;;;;;;;;4993757;28;19981;-73
2023/05/25 06:41:36;;;;;;;;;;;;;;;;;;5002808;28;19925;-73
2023/05/25 06:44:03;;;;;;;;;;;;;;;;;;4996358;28;19986;-72
2023/05/25 06:46:31;;;;;;;;;;;;;;;;;;5006622;28;19926;-72
2023/05/25 06:48:59;;;;;;;;;;;;;;;;;;5001490;28;19933;-72
2023/05/25 06:51:26;;;;;;;;;;;;;;;;;;5003545;28;19972;-72
2023/05/25 06:53:54;;;;;;;;;;;;;;;;;;4987499;28;20371;-72
2023/05/25 06:56:21;;;;;;;;;;;;;;;;;;5000419;28;19926;-72
2023/05/25 06:58:48;;;;;;;;;;;;;;;;;;4996274;28;19925;-72
2023/05/25 07:01:15;;;;;;;;;;;;;;;;;;5010167;28;19925;-72
2023/05/25 07:03:42;;;;;;;;;;;;;;;;;;5005806;28;19976;-72
2023/05/25 07:06:11;;;;;;;;;;;;;;;;;;5000582;28;19972;-73
2023/05/25 07:08:38;;;;;;;;;;;;;;;;;;4998583;28;19995;-72
2023/05/25 07:11:07;;;;;;;;;;;;;;;;;;4998667;28;19926;-71
2023/05/25 07:13:35;;;;;;;;;;;;;;;;;;4991290;28;19951;-73
2023/05/25 07:16:02;;;;;;;;;;;;;;;;;;5002464;28;19930;-73
2023/05/25 07:18:29;;;;;;;;;;;;;;;;;;4995079;28;19972;-78
2023/05/25 07:20:56;;;;;;;;;;;;;;;;;;5000246;28;19980;-73
2023/05/25 07:23:24;;;;;;;;;;;;;;;;;;4997289;28;19929;-73
2023/05/25 07:25:51;;;;;;;;;;;;;;;;;;5003649;28;19933;-74
2023/05/25 07:28:18;;;;;;;;;;;;;;;;;;4991706;28;19972;-72
2023/05/25 07:30:45;;;;;;;;;;;;;;;;;;5003886;28;20344;-73
2023/05/25 07:33:12;;;;;;;;;;;;;;;;;;4994969;28;19933;-73
2023/05/25 07:35:39;;;;;;;;;;;;;;;;;;4989675;28;19925;-74
2023/05/25 07:38:06;;;;;;;;;;;;;;;;;;5005766;28;19933;-73
2023/05/25 07:40:33;;;;;;;;;;;;;;;;;;4994525;28;19925;-73
2023/05/25 07:43:00;;;;;;;;;;;;;;;;;;4984622;28;19927;-73
2023/05/25 07:45:27;;;;;;;;;;;;;;;;;;4987246;28;19925;-74
2023/05/25 07:47:54;;;;;;;;;;;;;;;;;;4991604;28;19976;-74
2023/05/25 07:50:22;;;;;;;;;;;;;;;;;;5000826;28;19929;-75
2023/05/25 07:52:49;;;;;;;;;;;;;;;;;;4995029;28;19956;-74
2023/05/25 07:55:17;;;;;;;;;;;;;;;;;;4995810;28;19932;-75
2023/05/25 07:57:44;;;;;;;;;;;;;;;;;;4991710;28;19930;-75
2023/05/25 08:00:12;;;;;;;;;;;;;;;;;;4998373;28;19930;-74
2023/05/25 08:02:42;;;;;;;;;;;;;;;;;;4997850;28;19936;-74
2023/05/25 08:05:09;;;;;;;;;;;;;;;;;;5001336;28;19933;-74
2023/05/25 08:07:36;;;;;;;;;;;;;;;;;;4997924;28;19925;-74
2023/05/25 08:10:03;;;;;;;;;;;;;;;;;;4999290;28;19926;-74
2023/05/25 08:12:30;;;;;;;;;;;;;;;;;;4999878;28;19926;-74
2023/05/25 08:14:57;;;;;;;;;;;;;;;;;;4998098;28;19976;-74
2023/05/25 08:17:24;;;;;;;;;;;;;;;;;;5004040;28;19976;-74
2023/05/25 08:19:51;;;;;;;;;;;;;;;;;;4994851;28;19939;-74
2023/05/25 08:22:18;;;;;;;;;;;;;;;;;;4999326;28;19926;-74
2023/05/25 08:24:45;;;;;;;;;;;;;;;;;;4993340;28;19930;-75
2023/05/25 08:27:12;;;;;;;;;;;;;;;;;;5004956;28;19925;-72
2023/05/25 08:29:40;;;;;;;;;;;;;;;;;;4993338;28;19930;-74
2023/05/25 08:32:07;;;;;;;;;;;;;;;;;;4987321;28;19930;-74
2023/05/25 08:34:34;;;;;;;;;;;;;;;;;;4992882;28;19926;-70
2023/05/25 08:37:01;;;;;;;;;;;;;;;;;;4995312;28;19933;-74
2023/05/25 08:39:28;;;;;;;;;;;;;;;;;;5005303;28;19932;-75
2023/05/25 08:41:55;;;;;;;;;;;;;;;;;;4997138;28;19953;-74
2023/05/25 08:44:22;;;;;;;;;;;;;;;;;;4995301;28;19941;-74
2023/05/25 08:46:49;;;;;;;;;;;;;;;;;;4994115;28;20295;-73
2023/05/25 08:49:16;;;;;;;;;;;;;;;;;;4988943;28;19926;-73
2023/05/25 08:51:43;;;;;;;;;;;;;;;;;;4993285;28;19926;-74
2023/05/25 08:54:10;;;;;;;;;;;;;;;;;;4989430;28;19933;-73
2023/05/25 08:56:38;;;;;;;;;;;;;;;;;;5000777;28;19932;-74
2023/05/25 08:59:05;;;;;;;;;;;;;;;;;;4991837;28;19926;-73
2023/05/25 09:01:32;;;;;;;;;;;;;;;;;;5000103;28;19929;-72
2023/05/25 09:03:59;;;;;;;;;;;;;;;;;;4991961;28;19933;-71
2023/05/25 09:06:27;;;;;;;;;;;;;;;;;;4998568;28;19925;-75
2023/05/25 09:08:54;;;;;;;;;;;;;;;;;;4994600;28;19926;-72
2023/05/25 09:11:21;;;;;;;;;;;;;;;;;;5008222;28;19926;-74
2023/05/25 09:13:48;;;;;;;;;;;;;;;;;;4996992;28;19926;-74
2023/05/25 09:16:15;;;;;;;;;;;;;;;;;;4994553;28;19933;-73
2023/05/25 09:18:42;;;;;;;;;;;;;;;;;;4990786;28;19936;-73
2023/05/25 09:21:09;;;;;;;;;;;;;;;;;;4987816;28;19985;-74
2023/05/25 09:23:36;;;;;;;;;;;;;;;;;;4988300;28;19925;-75
2023/05/25 09:26:03;;;;;;;;;;;;;;;;;;4992858;28;19933;-74
2023/05/25 09:28:30;;;;;;;;;;;;;;;;;;4991996;28;19926;-73
2023/05/25 09:30:57;;;;;;;;;;;;;;;;;;4998320;28;20456;-72
2023/05/25 09:33:25;;;;;;;;;;;;;;;;;;4998622;28;19926;-73
2023/05/25 09:35:52;;;;;;;;;;;;;;;;;;5002859;28;19930;-73
2023/05/25 09:38:19;;;;;;;;;;;;;;;;;;5001508;28;19948;-75
2023/05/25 09:40:46;;;;;;;;;;;;;;;;;;5003355;28;19925;-73
2023/05/25 09:43:13;;;;;;;;;;;;;;;;;;4999016;28;19930;-74
2023/05/25 09:45:40;;;;;;;;;;;;;;;;;;5003229;28;19932;-72
2023/05/25 09:48:07;;;;;;;;;;;;;;;;;;4999824;28;19926;-73
2023/05/25 09:50:34;;;;;;;;;;;;;;;;;;4987628;28;19926;-73
2023/05/25 09:53:01;;;;;;;;;;;;;;;;;;4996708;28;19986;-74
2023/05/25 09:55:29;;;;;;;;;;;;;;;;;;4992306;28;19933;-75
2023/05/25 09:57:56;;;;;;;;;;;;;;;;;;5001694;28;20453;-74
2023/05/25 10:00:23;;;;;;;;;;;;;;;;;;4988745;28;19926;-74
2023/05/25 10:02:50;;;;;;;;;;;;;;;;;;4998131;28;19930;-74
2023/05/25 10:05:17;;;;;;;;;;;;;;;;;;4998406;28;19926;-73
2023/05/25 10:07:44;;;;;;;;;;;;;;;;;;4991570;28;19926;-75
2023/05/25 10:10:11;;;;;;;;;;;;;;;;;;4996802;28;19930;-75
2023/05/25 10:12:38;;;;;;;;;;;;;;;;;;4985293;28;20361;-75
2023/05/25 10:15:05;;;;;;;;;;;;;;;;;;4992607;28;19930;-75
2023/05/25 10:17:33;;;;;;;;;;;;;;;;;;4989577;28;19934;-73
2023/05/25 10:20:00;;;;;;;;;;;;;;;;;;4987532;28;19932;-76
2023/05/25 10:22:27;;;;;;;;;;;;;;;;;;4992857;28;19926;-76
2023/05/25 10:24:55;;;;;;;;;;;;;;;;;;4994843;28;19925;-73
2023/05/25 10:27:22;;;;;;;;;;;;;;;;;;4995764;28;20522;-74
2023/05/25 10:29:49;;;;;;;;;;;;;;;;;;4991987;28;19988;-74
2023/05/25 10:32:16;;;;;;;;;;;;;;;;;;4995022;28;19929;-74
2023/05/25 10:34:44;;;;;;;;;;;;;;;;;;4996471;28;19926;-73
2023/05/25 10:37:11;;;;;;;;;;;;;;;;;;4994237;28;19926;-74
2023/05/25 10:39:38;;;;;;;;;;;;;;;;;;4994078;28;19933;-74
2023/05/25 10:42:05;;;;;;;;;;;;;;;;;;4998177;28;19933;-73
2023/05/25 10:44:33;;;;;;;;;;;;;;;;;;5009439;28;19934;-74
2023/05/25 10:47:00;;;;;;;;;;;;;;;;;;4995751;28;19926;-74
2023/05/25 10:49:27;;;;;;;;;;;;;;;;;;4997710;28;19926;-74
2023/05/25 10:51:54;;;;;;;;;;;;;;;;;;5005773;28;19964;-74
2023/05/25 10:54:21;;;;;;;;;;;;;;;;;;4996371;28;19933;-74
2023/05/25 10:56:48;;;;;;;;;;;;;;;;;;5001085;28;19981;-74
2023/05/25 10:59:15;;;;;;;;;;;;;;;;;;5001784;28;19925;-73
2023/05/25 11:01:42;;;;;;;;;;;;;;;;;;5004675;28;19926;-74
2023/05/25 11:04:09;;;;;;;;;;;;;;;;;;5002701;28;19926;-74
2023/05/25 11:06:39;;;;;;;;;;;;;;;;;;5002488;28;19930;-74
2023/05/25 11:09:06;;;;;;;;;;;;;;;;;;4992331;28;19926;-74
2023/05/25 11:11:33;;;;;;;;;;;;;;;;;;4996196;28;19952;-73
2023/05/25 11:14:00;;;;;;;;;;;;;;;;;;4994404;28;19926;-77
2023/05/25 11:16:33;;;;;;;;;;;;;;;;;;4989764;28;19979;-76
2023/05/25 11:19:00;;;;;;;;;;;;;;;;;;4997636;28;19989;-74
2023/05/25 11:21:27;;;;;;;;;;;;;;;;;;5006133;28;19925;-73
2023/05/25 11:23:54;;;;;;;;;;;;;;;;;;4993623;28;19925;-75
2023/05/25 11:26:22;;;;;;;;;;;;;;;;;;4989983;28;19941;-75
2023/05/25 11:28:49;;;;;;;;;;;;;;;;;;4999688;28;20352;-76
2023/05/25 11:31:17;;;;;;;;;;;;;;;;;;4993555;28;19933;-74
2023/05/25 11:33:44;;;;;;;;;;;;;;;;;;4999076;28;20431;-75
2023/05/25 11:36:11;;;;;;;;;;;;;;;;;;4992937;28;19988;-75
2023/05/25 11:38:40;;;;;;;;;;;;;;;;;;4992456;28;19932;-75
2023/05/25 11:41:07;;;;;;;;;;;;;;;;;;4995778;28;19933;-75
2023/05/25 11:43:35;;;;;;;;;;;;;;;;;;5000284;28;19926;-75
2023/05/25 11:46:02;;;;;;;;;;;;;;;;;;4998620;28;19925;-76
2023/05/25 11:48:29;;;;;;;;;;;;;;;;;;4990719;28;19936;-75
2023/05/25 11:50:57;;;;;;;;;;;;;;;;;;4992334;28;19926;-76
2023/05/25 11:53:24;;;;;;;;;;;;;;;;;;4992184;28;20312;-75
2023/05/25 11:55:51;;;;;;;;;;;;;;;;;;4994364;28;19926;-75
2023/05/25 11:58:18;;;;;;;;;;;;;;;;;;4991909;28;19933;-73
2023/05/25 12:00:45;;;;;;;;;;;;;;;;;;4992385;28;19984;-76
2023/05/25 12:03:13;;;;;;;;;;;;;;;;;;4996785;28;19926;-75
2023/05/25 12:05:40;;;;;;;;;;;;;;;;;;4988916;28;19926;-76
2023/05/25 12:08:07;;;;;;;;;;;;;;;;;;4987808;28;19926;-76
2023/05/25 12:10:34;;;;;;;;;;;;;;;;;;4995032;28;19949;-75
2023/05/25 12:13:03;;;;;;;;;;;;;;;;;;5005901;28;19926;-76
2023/05/25 12:15:30;;;;;;;;;;;;;;;;;;4988837;28;20029;-78
2023/05/25 12:17:57;;;;;;;;;;;;;;;;;;4994181;28;19926;-76
2023/05/25 12:20:24;;;;;;;;;;;;;;;;;;4991639;28;20404;-78
2023/05/25 12:22:52;;;;;;;;;;;;;;;;;;4991817;28;19925;-75
2023/05/25 12:25:19;;;;;;;;;;;;;;;;;;4990611;28;19925;-76
2023/05/25 12:27:46;;;;;;;;;;;;;;;;;;5000741;28;19948;-76
2023/05/25 12:30:13;;;;;;;;;;;;;;;;;;4992971;28;19953;-76
2023/05/25 12:32:41;;;;;;;;;;;;;;;;;;4991274;28;20352;-76
2023/05/25 12:35:08;;;;;;;;;;;;;;;;;;4990706;28;19926;-75
2023/05/25 12:37:35;;;;;;;;;;;;;;;;;;4990670;28;19937;-76
2023/05/25 12:40:03;;;;;;;;;;;;;;;;;;4990446;28;19929;-76
2023/05/25 12:42:32;;;;;;;;;;;;;;;;;;4985212;28;19944;-75
2023/05/25 12:45:00;;;;;;;;;;;;;;;;;;4996192;28;19925;-75
2023/05/25 12:47:29;;;;;;;;;;;;;;;;;;4990839;28;20013;-76
2023/05/25 12:49:56;;;;;;;;;;;;;;;;;;4996563;28;19971;-77
2023/05/25 12:52:23;;;;;;;;;;;;;;;;;;4998770;28;19989;-74
2023/05/25 12:54:50;;;;;;;;;;;;;;;;;;4990255;28;19926;-78
2023/05/25 12:57:17;;;;;;;;;;;;;;;;;;4997978;28;19932;-76
2023/05/25 12:59:44;;;;;;;;;;;;;;;;;;4992131;28;19937;-77
2023/05/25 13:02:11;;;;;;;;;;;;;;;;;;4990561;28;20392;-74
2023/05/25 13:04:38;;;;;;;;;;;;;;;;;;5001650;28;20001;-74
2023/05/25 13:07:05;;;;;;;;;;;;;;;;;;4995010;28;19926;-75
2023/05/25 13:09:32;;;;;;;;;;;;;;;;;;4990164;28;19934;-76
2023/05/25 13:12:01;;;;;;;;;;;;;;;;;;4997816;28;19929;-75
2023/05/25 13:14:28;;;;;;;;;;;;;;;;;;4989369;28;20008;-75
2023/05/25 13:16:55;;;;;;;;;;;;;;;;;;4998282;28;19929;-75
2023/05/25 13:19:23;;;;;;;;;;;;;;;;;;4997663;28;19961;-75
2023/05/25 13:21:50;;;;;;;;;;;;;;;;;;4983637;28;19957;-75
2023/05/25 13:24:18;;;;;;;;;;;;;;;;;;4996279;28;19933;-75
2023/05/25 13:26:45;;;;;;;;;;;;;;;;;;4990182;28;19930;-77
2023/05/25 13:29:12;;;;;;;;;;;;;;;;;;4993688;28;20411;-76
2023/05/25 13:31:39;;;;;;;;;;;;;;;;;;4991396;28;20332;-75
2023/05/25 13:34:06;;;;;;;;;;;;;;;;;;4996924;28;19925;-74
2023/05/25 13:36:33;;;;;;;;;;;;;;;;;;4990380;28;19933;-75
2023/05/25 13:39:00;;;;;;;;;;;;;;;;;;5001032;28;19970;-75
2023/05/25 13:41:27;;;;;;;;;;;;;;;;;;4991210;28;19926;-75
2023/05/25 13:43:55;;;;;;;;;;;;;;;;;;4997239;28;19933;-75
2023/05/25 13:46:22;;;;;;;;;;;;;;;;;;4992013;28;19926;-76
2023/05/25 13:48:49;;;;;;;;;;;;;;;;;;4994625;28;19925;-75
2023/05/25 13:51:16;;;;;;;;;;;;;;;;;;5000521;28;19926;-75
2023/05/25 13:53:43;;;;;;;;;;;;;;;;;;4990316;28;19926;-75
2023/05/25 13:56:10;;;;;;;;;;;;;;;;;;4996574;28;19937;-74
2023/05/25 13:58:37;;;;;;;;;;;;;;;;;;5001686;28;19933;-74
2023/05/25 14:01:04;;;;;;;;;;;;;;;;;;4997504;28;19930;-73
2023/05/25 14:03:32;;;;;;;;;;;;;;;;;;5000085;28;19976;-75
2023/05/25 14:05:59;;;;;;;;;;;;;;;;;;4979620;28;20361;-74
2023/05/25 14:08:26;;;;;;;;;;;;;;;;;;4996212;28;19926;-75
2023/05/25 14:10:53;;;;;;;;;;;;;;;;;;4997444;28;19926;-77
2023/05/25 14:13:20;;;;;;;;;;;;;;;;;;4999227;28;19926;-74
2023/05/25 14:15:47;;;;;;;;;;;;;;;;;;4993075;28;19930;-75
2023/05/25 14:18:15;;;;;;;;;;;;;;;;;;4993066;28;19930;-75
2023/05/25 14:20:42;;;;;;;;;;;;;;;;;;4987769;28;19930;-77
2023/05/25 14:23:09;;;;;;;;;;;;;;;;;;4986829;28;19930;-75
2023/05/25 14:25:36;;;;;;;;;;;;;;;;;;4998602;28;19925;-74
2023/05/25 14:28:03;;;;;;;;;;;;;;;;;;5001258;28;19929;-75
2023/05/25 14:30:30;;;;;;;;;;;;;;;;;;5000704;28;19930;-77
2023/05/25 14:32:57;;;;;;;;;;;;;;;;;;4999983;28;19941;-74
2023/05/25 14:35:24;;;;;;;;;;;;;;;;;;4994994;28;19934;-78
2023/05/25 14:37:51;;;;;;;;;;;;;;;;;;5005346;28;19950;-79
2023/05/25 14:40:20;;;;;;;;;;;;;;;;;;5001063;28;19930;-74
2023/05/25 14:42:47;;;;;;;;;;;;;;;;;;5004699;28;20028;-74
2023/05/25 14:45:15;;;;;;;;;;;;;;;;;;4992268;28;19966;-74
2023/05/25 14:47:42;;;;;;;;;;;;;;;;;;5010505;28;19926;-74
2023/05/25 14:50:09;;;;;;;;;;;;;;;;;;4994196;28;19933;-74
2023/05/25 14:52:36;;;;;;;;;;;;;;;;;;5000470;28;19930;-74
2023/05/25 14:55:03;;;;;;;;;;;;;;;;;;5004075;28;20344;-74
2023/05/25 14:57:30;;;;;;;;;;;;;;;;;;4993379;28;20349;-74
2023/05/25 14:59:57;;;;;;;;;;;;;;;;;;5004303;28;19925;-74
2023/05/25 15:02:24;;;;;;;;;;;;;;;;;;4991745;28;19988;-75
2023/05/25 15:04:53;;;;;;;;;;;;;;;;;;4992243;28;19926;-74
2023/05/25 15:07:20;;;;;;;;;;;;;;;;;;4999044;28;20025;-75
2023/05/25 15:09:47;;;;;;;;;;;;;;;;;;4997406;28;19933;-74
2023/05/25 15:12:14;;;;;;;;;;;;;;;;;;5004661;28;19934;-74
2023/05/25 15:14:41;;;;;;;;;;;;;;;;;;5000570;28;19926;-74
2023/05/25 15:17:08;;;;;;;;;;;;;;;;;;5019908;23;20416;-74
2023/05/25 15:19:35;;;;;;;;;;;;;;;;;;5021972;28;19925;-74
2023/05/25 15:22:02;;;;;;;;;;;;;;;;;;5021648;28;19952;-74
2023/05/25 15:24:29;;;;;;;;;;;;;;;;;;5014833;28;19926;-75
2023/05/25 15:26:56;;;;;;;;;;;;;;;;;;5014240;28;19926;-75
2023/05/25 15:29:23;;;;;;;;;;;;;;;;;;5010319;28;20012;-76
2023/05/25 15:31:50;;;;;;;;;;;;;;;;;;5012681;28;19968;-75
2023/05/25 15:34:17;;;;;;;;;;;;;;;;;;5020867;28;20011;-74
2023/05/25 15:36:44;;;;;;;;;;;;;;;;;;5025029;28;20048;-75
2023/05/25 15:39:11;;;;;;;;;;;;;;;;;;5017948;28;19926;-75
2023/05/25 15:41:39;;;;;;;;;;;;;;;;;;5021135;28;20410;-76
2023/05/25 15:44:07;;;;;;;;;;;;;;;;;;5021597;28;19976;-75
2023/05/25 15:46:34;;;;;;;;;;;;;;;;;;5018427;28;20412;-75
2023/05/25 15:49:01;;;;;;;;;;;;;;;;;;5018728;28;19926;-75
2023/05/25 15:51:28;;;;;;;;;;;;;;;;;;5013231;28;19926;-74
2023/05/25 15:53:56;;;;;;;;;;;;;;;;;;5019743;28;19925;-74
2023/05/25 15:56:23;;;;;;;;;;;;;;;;;;5023243;28;19926;-75
2023/05/25 15:58:50;;;;;;;;;;;;;;;;;;5010476;28;19925;-75
2023/05/25 16:01:17;;;;;;;;;;;;;;;;;;5016259;28;20465;-75
2023/05/25 16:03:44;;;;;;;;;;;;;;;;;;5017240;28;19968;-74
2023/05/25 16:06:11;;;;;;;;;;;;;;;;;;5016436;28;19929;-73
2023/05/25 16:08:38;;;;;;;;;;;;;;;;;;5017531;28;19925;-75
2023/05/25 16:11:05;;;;;;;;;;;;;;;;;;5021497;28;19929;-74
2023/05/25 16:13:32;;;;;;;;;;;;;;;;;;5014963;28;20362;-74
2023/05/25 16:15:59;;;;;;;;;;;;;;;;;;5012822;28;19925;-75
2023/05/25 16:18:26;;;;;;;;;;;;;;;;;;5014657;28;19926;-76
2023/05/25 16:20:56;;;;;;;;;;;;;;;;;;5015376;28;20392;-75
2023/05/25 16:23:23;;;;;;;;;;;;;;;;;;5006364;28;19925;-76
2023/05/25 16:25:50;;;;;;;;;;;;;;;;;;5009453;28;19925;-75
2023/05/25 16:28:17;;;;;;;;;;;;;;;;;;5005396;28;19925;-77
2023/05/25 16:30:44;;;;;;;;;;;;;;;;;;5012334;28;19982;-75
2023/05/25 16:33:11;;;;;;;;;;;;;;;;;;5012293;28;19976;-75
2023/05/25 16:35:38;;;;;;;;;;;;;;;;;;5009689;28;19926;-75
2023/05/25 16:38:05;;;;;;;;;;;;;;;;;;5018995;28;20396;-75
2023/05/25 16:40:33;;;;;;;;;;;;;;;;;;5019549;28;19936;-75
2023/05/25 16:43:00;;;;;;;;;;;;;;;;;;5012211;28;19929;-74
2023/05/25 16:45:27;;;;;;;;;;;;;;;;;;5022658;28;20466;-75
2023/05/25 16:47:54;;;;;;;;;;;;;;;;;;5018947;28;19978;-74